sensor_id;sensor_type;location;lat;lon;timestamp;P1;durP1;ratioP1;P2;durP2;ratioP2
4422;SDS011;2224;49.814;8.650;2024-03-02T00:01:21;11.20;;;8.03;;
4422;SDS011;2224;49.814;8.650;2024-03-02T00:03:47;8.33;;;7.13;;
4422;SDS011;2224;49.814;8.650;2024-03-02T00:06:12;9.80;;;6.90;;
4422;SDS011;2224;49.814;8.650;2024-03-02T00:08:38;10.90;;;7.50;;
4422;SDS011;2224;49.814;8.650;2024-03-02T00:11:03;8.03;;;5.50;;
4422;SDS011;2224;49.814;8.650;2024-03-02T00:13:29;8.80;;;6.10;;
4422;SDS011;2224;49.814;8.650;2024-03-02T00:15:56;7.33;;;5.70;;
4422;SDS011;2224;49.814;8.650;2024-03-02T00:20:54;9.00;;;5.50;;
4422;SDS011;2224;49.814;8.650;2024-03-02T00:23:21;8.77;;;5.37;;
4422;SDS011;2224;49.814;8.650;2024-03-02T00:25:51;8.40;;;5.73;;
4422;SDS011;2224;49.814;8.650;2024-03-02T00:28:22;10.43;;;7.70;;
4422;SDS011;2224;49.814;8.650;2024-03-02T00:30:55;11.67;;;9.57;;
4422;SDS011;2224;49.814;8.650;2024-03-02T00:33:29;10.87;;;8.80;;
4422;SDS011;2224;49.814;8.650;2024-03-02T00:35:57;12.40;;;9.23;;
4422;SDS011;2224;49.814;8.650;2024-03-02T00:38:22;11.47;;;9.00;;
4422;SDS011;2224;49.814;8.650;2024-03-02T00:40:48;17.07;;;10.97;;
4422;SDS011;2224;49.814;8.650;2024-03-02T00:46:20;14.27;;;10.70;;
4422;SDS011;2224;49.814;8.650;2024-03-02T00:48:58;13.77;;;10.73;;
4422;SDS011;2224;49.814;8.650;2024-03-02T00:51:26;12.13;;;9.43;;
4422;SDS011;2224;49.814;8.650;2024-03-02T00:53:53;11.97;;;10.60;;
4422;SDS011;2224;49.814;8.650;2024-03-02T00:56:21;11.73;;;10.40;;
4422;SDS011;2224;49.814;8.650;2024-03-02T00:58:47;11.57;;;9.90;;
4422;SDS011;2224;49.814;8.650;2024-03-02T01:01:13;11.33;;;8.77;;
4422;SDS011;2224;49.814;8.650;2024-03-02T01:03:38;10.83;;;9.03;;
4422;SDS011;2224;49.814;8.650;2024-03-02T01:06:04;10.73;;;8.13;;
4422;SDS011;2224;49.814;8.650;2024-03-02T01:08:29;10.33;;;7.53;;
4422;SDS011;2224;49.814;8.650;2024-03-02T01:10:55;9.00;;;8.03;;
4422;SDS011;2224;49.814;8.650;2024-03-02T01:13:21;8.77;;;7.33;;
4422;SDS011;2224;49.814;8.650;2024-03-02T01:15:48;11.40;;;8.67;;
4422;SDS011;2224;49.814;8.650;2024-03-02T01:18:13;8.33;;;6.97;;
4422;SDS011;2224;49.814;8.650;2024-03-02T01:20:38;9.90;;;7.87;;
4422;SDS011;2224;49.814;8.650;2024-03-02T01:23:04;8.67;;;6.73;;
4422;SDS011;2224;49.814;8.650;2024-03-02T01:25:29;12.93;;;8.17;;
4422;SDS011;2224;49.814;8.650;2024-03-02T01:27:55;13.07;;;9.47;;
4422;SDS011;2224;49.814;8.650;2024-03-02T01:30:20;14.50;;;11.13;;
4422;SDS011;2224;49.814;8.650;2024-03-02T01:32:46;13.83;;;9.97;;
4422;SDS011;2224;49.814;8.650;2024-03-02T01:35:11;14.90;;;10.53;;
4422;SDS011;2224;49.814;8.650;2024-03-02T01:37:37;14.13;;;10.57;;
4422;SDS011;2224;49.814;8.650;2024-03-02T01:40:02;13.47;;;11.50;;
4422;SDS011;2224;49.814;8.650;2024-03-02T01:42:28;15.40;;;12.50;;
4422;SDS011;2224;49.814;8.650;2024-03-02T01:44:53;16.87;;;12.17;;
4422;SDS011;2224;49.814;8.650;2024-03-02T01:47:18;14.90;;;11.20;;
4422;SDS011;2224;49.814;8.650;2024-03-02T01:49:44;18.53;;;11.90;;
4422;SDS011;2224;49.814;8.650;2024-03-02T01:52:09;14.83;;;11.67;;
4422;SDS011;2224;49.814;8.650;2024-03-02T01:54:34;16.93;;;12.63;;
4422;SDS011;2224;49.814;8.650;2024-03-02T01:57:00;15.23;;;11.77;;
4422;SDS011;2224;49.814;8.650;2024-03-02T01:59:25;17.33;;;10.73;;
4422;SDS011;2224;49.814;8.650;2024-03-02T02:01:50;19.07;;;11.73;;
4422;SDS011;2224;49.814;8.650;2024-03-02T02:04:16;15.13;;;11.10;;
4422;SDS011;2224;49.814;8.650;2024-03-02T02:06:42;14.43;;;11.07;;
4422;SDS011;2224;49.814;8.650;2024-03-02T02:09:09;17.97;;;12.67;;
4422;SDS011;2224;49.814;8.650;2024-03-02T02:11:34;17.37;;;13.27;;
4422;SDS011;2224;49.814;8.650;2024-03-02T02:13:59;16.53;;;13.17;;
4422;SDS011;2224;49.814;8.650;2024-03-02T02:16:25;18.67;;;13.10;;
4422;SDS011;2224;49.814;8.650;2024-03-02T02:18:50;16.67;;;12.93;;
4422;SDS011;2224;49.814;8.650;2024-03-02T02:21:15;16.70;;;13.03;;
4422;SDS011;2224;49.814;8.650;2024-03-02T02:23:41;15.63;;;12.70;;
4422;SDS011;2224;49.814;8.650;2024-03-02T02:26:11;15.93;;;11.43;;
4422;SDS011;2224;49.814;8.650;2024-03-02T02:28:36;14.83;;;11.67;;
4422;SDS011;2224;49.814;8.650;2024-03-02T02:31:01;13.83;;;11.87;;
4422;SDS011;2224;49.814;8.650;2024-03-02T02:33:27;18.00;;;10.40;;
4422;SDS011;2224;49.814;8.650;2024-03-02T02:35:53;15.23;;;11.80;;
4422;SDS011;2224;49.814;8.650;2024-03-02T02:38:18;13.80;;;10.70;;
4422;SDS011;2224;49.814;8.650;2024-03-02T02:40:45;12.47;;;9.80;;
4422;SDS011;2224;49.814;8.650;2024-03-02T02:43:10;15.00;;;11.37;;
4422;SDS011;2224;49.814;8.650;2024-03-02T02:45:35;14.23;;;10.17;;
4422;SDS011;2224;49.814;8.650;2024-03-02T02:48:01;11.67;;;9.47;;
4422;SDS011;2224;49.814;8.650;2024-03-02T02:50:27;14.77;;;9.57;;
4422;SDS011;2224;49.814;8.650;2024-03-02T02:52:53;11.93;;;9.27;;
4422;SDS011;2224;49.814;8.650;2024-03-02T02:55:18;10.17;;;8.00;;
4422;SDS011;2224;49.814;8.650;2024-03-02T02:57:43;10.70;;;8.00;;
4422;SDS011;2224;49.814;8.650;2024-03-02T03:00:10;10.30;;;8.43;;
4422;SDS011;2224;49.814;8.650;2024-03-02T03:02:42;10.80;;;8.63;;
4422;SDS011;2224;49.814;8.650;2024-03-02T03:05:09;9.40;;;8.20;;
4422;SDS011;2224;49.814;8.650;2024-03-02T03:07:36;10.17;;;8.40;;
4422;SDS011;2224;49.814;8.650;2024-03-02T03:10:02;12.60;;;8.87;;
4422;SDS011;2224;49.814;8.650;2024-03-02T03:12:29;11.03;;;8.77;;
4422;SDS011;2224;49.814;8.650;2024-03-02T03:14:54;10.10;;;8.33;;
4422;SDS011;2224;49.814;8.650;2024-03-02T03:17:21;9.93;;;8.00;;
4422;SDS011;2224;49.814;8.650;2024-03-02T03:19:46;10.00;;;7.30;;
4422;SDS011;2224;49.814;8.650;2024-03-02T03:22:12;9.53;;;6.93;;
4422;SDS011;2224;49.814;8.650;2024-03-02T03:24:38;8.70;;;6.47;;
4422;SDS011;2224;49.814;8.650;2024-03-02T03:27:03;6.90;;;5.87;;
4422;SDS011;2224;49.814;8.650;2024-03-02T03:29:28;8.67;;;5.73;;
4422;SDS011;2224;49.814;8.650;2024-03-02T03:31:54;5.20;;;4.70;;
4422;SDS011;2224;49.814;8.650;2024-03-02T03:34:19;7.03;;;5.57;;
4422;SDS011;2224;49.814;8.650;2024-03-02T03:36:44;5.83;;;4.50;;
4422;SDS011;2224;49.814;8.650;2024-03-02T03:39:10;7.40;;;4.70;;
4422;SDS011;2224;49.814;8.650;2024-03-02T03:41:35;6.90;;;4.30;;
4422;SDS011;2224;49.814;8.650;2024-03-02T03:44:00;7.27;;;4.90;;
4422;SDS011;2224;49.814;8.650;2024-03-02T03:46:26;4.40;;;3.57;;
4422;SDS011;2224;49.814;8.650;2024-03-02T03:48:51;3.77;;;3.40;;
4422;SDS011;2224;49.814;8.650;2024-03-02T03:51:16;11.00;;;3.40;;
4422;SDS011;2224;49.814;8.650;2024-03-02T03:53:42;3.43;;;3.13;;
4422;SDS011;2224;49.814;8.650;2024-03-02T03:56:07;2.77;;;2.50;;
4422;SDS011;2224;49.814;8.650;2024-03-02T03:58:32;2.60;;;2.30;;
4422;SDS011;2224;49.814;8.650;2024-03-02T04:00:58;5.30;;;2.73;;
4422;SDS011;2224;49.814;8.650;2024-03-02T04:03:23;2.63;;;2.43;;
4422;SDS011;2224;49.814;8.650;2024-03-02T04:05:48;3.50;;;2.77;;
4422;SDS011;2224;49.814;8.650;2024-03-02T04:08:14;7.33;;;6.63;;
4422;SDS011;2224;49.814;8.650;2024-03-02T04:10:39;10.60;;;8.67;;
4422;SDS011;2224;49.814;8.650;2024-03-02T04:13:05;12.20;;;10.00;;
4422;SDS011;2224;49.814;8.650;2024-03-02T04:15:30;11.83;;;10.40;;
4422;SDS011;2224;49.814;8.650;2024-03-02T04:17:56;15.90;;;11.23;;
4422;SDS011;2224;49.814;8.650;2024-03-02T04:20:21;12.50;;;10.33;;
4422;SDS011;2224;49.814;8.650;2024-03-02T04:22:46;16.33;;;12.60;;
4422;SDS011;2224;49.814;8.650;2024-03-02T04:25:12;13.30;;;11.80;;
4422;SDS011;2224;49.814;8.650;2024-03-02T04:27:37;15.47;;;11.20;;
4422;SDS011;2224;49.814;8.650;2024-03-02T04:30:03;16.57;;;12.77;;
4422;SDS011;2224;49.814;8.650;2024-03-02T04:32:30;14.47;;;12.70;;
4422;SDS011;2224;49.814;8.650;2024-03-02T04:34:55;17.70;;;12.90;;
4422;SDS011;2224;49.814;8.650;2024-03-02T04:37:20;19.53;;;14.27;;
4422;SDS011;2224;49.814;8.650;2024-03-02T04:39:46;16.17;;;13.50;;
4422;SDS011;2224;49.814;8.650;2024-03-02T04:42:11;19.07;;;14.07;;
4422;SDS011;2224;49.814;8.650;2024-03-02T04:44:36;16.90;;;12.93;;
4422;SDS011;2224;49.814;8.650;2024-03-02T04:47:03;22.27;;;16.60;;
4422;SDS011;2224;49.814;8.650;2024-03-02T04:49:28;19.13;;;14.23;;
4422;SDS011;2224;49.814;8.650;2024-03-02T04:51:55;17.03;;;15.20;;
4422;SDS011;2224;49.814;8.650;2024-03-02T04:54:20;19.73;;;15.20;;
4422;SDS011;2224;49.814;8.650;2024-03-02T04:56:45;19.37;;;14.93;;
4422;SDS011;2224;49.814;8.650;2024-03-02T04:59:20;23.97;;;18.87;;
4422;SDS011;2224;49.814;8.650;2024-03-02T05:01:45;22.03;;;17.77;;
4422;SDS011;2224;49.814;8.650;2024-03-02T05:04:11;18.63;;;14.40;;
4422;SDS011;2224;49.814;8.650;2024-03-02T05:06:37;19.90;;;16.30;;
4422;SDS011;2224;49.814;8.650;2024-03-02T05:09:04;16.97;;;14.60;;
4422;SDS011;2224;49.814;8.650;2024-03-02T05:11:29;22.90;;;15.37;;
4422;SDS011;2224;49.814;8.650;2024-03-02T05:14:17;16.40;;;13.57;;
4422;SDS011;2224;49.814;8.650;2024-03-02T05:16:42;20.30;;;15.67;;
4422;SDS011;2224;49.814;8.650;2024-03-02T05:19:08;20.67;;;14.93;;
4422;SDS011;2224;49.814;8.650;2024-03-02T05:21:33;17.33;;;13.83;;
4422;SDS011;2224;49.814;8.650;2024-03-02T05:23:59;20.73;;;16.17;;
4422;SDS011;2224;49.814;8.650;2024-03-02T05:26:25;21.10;;;15.00;;
4422;SDS011;2224;49.814;8.650;2024-03-02T05:28:50;23.93;;;16.43;;
4422;SDS011;2224;49.814;8.650;2024-03-02T05:31:15;20.50;;;16.87;;
4422;SDS011;2224;49.814;8.650;2024-03-02T05:33:41;18.50;;;15.60;;
4422;SDS011;2224;49.814;8.650;2024-03-02T05:36:07;21.17;;;17.27;;
4422;SDS011;2224;49.814;8.650;2024-03-02T05:38:34;22.67;;;17.73;;
4422;SDS011;2224;49.814;8.650;2024-03-02T05:40:59;19.77;;;15.43;;
4422;SDS011;2224;49.814;8.650;2024-03-02T05:43:25;20.17;;;16.90;;
4422;SDS011;2224;49.814;8.650;2024-03-02T05:45:50;20.00;;;15.27;;
4422;SDS011;2224;49.814;8.650;2024-03-02T05:48:15;18.10;;;14.17;;
4422;SDS011;2224;49.814;8.650;2024-03-02T05:50:41;19.47;;;15.10;;
4422;SDS011;2224;49.814;8.650;2024-03-02T05:53:06;19.30;;;14.63;;
4422;SDS011;2224;49.814;8.650;2024-03-02T05:55:31;18.10;;;13.73;;
4422;SDS011;2224;49.814;8.650;2024-03-02T05:57:57;19.37;;;15.50;;
4422;SDS011;2224;49.814;8.650;2024-03-02T06:00:28;19.97;;;14.20;;
4422;SDS011;2224;49.814;8.650;2024-03-02T06:02:53;19.50;;;14.13;;
4422;SDS011;2224;49.814;8.650;2024-03-02T06:05:18;23.27;;;16.07;;
4422;SDS011;2224;49.814;8.650;2024-03-02T06:07:44;18.57;;;15.50;;
4422;SDS011;2224;49.814;8.650;2024-03-02T06:10:09;17.30;;;13.80;;
4422;SDS011;2224;49.814;8.650;2024-03-02T06:12:36;21.13;;;14.07;;
4422;SDS011;2224;49.814;8.650;2024-03-02T06:15:01;18.73;;;14.53;;
4422;SDS011;2224;49.814;8.650;2024-03-02T06:17:26;29.00;;;18.17;;
4422;SDS011;2224;49.814;8.650;2024-03-02T06:19:52;23.73;;;16.20;;
4422;SDS011;2224;49.814;8.650;2024-03-02T06:22:17;19.80;;;15.60;;
4422;SDS011;2224;49.814;8.650;2024-03-02T06:24:44;35.57;;;24.33;;
4422;SDS011;2224;49.814;8.650;2024-03-02T06:27:09;39.63;;;26.77;;
4422;SDS011;2224;49.814;8.650;2024-03-02T06:29:34;33.53;;;22.03;;
4422;SDS011;2224;49.814;8.650;2024-03-02T06:32:00;36.80;;;23.90;;
4422;SDS011;2224;49.814;8.650;2024-03-02T06:34:25;85.40;;;44.43;;
4422;SDS011;2224;49.814;8.650;2024-03-02T06:36:50;96.60;;;48.57;;
4422;SDS011;2224;49.814;8.650;2024-03-02T06:39:16;74.40;;;42.83;;
4422;SDS011;2224;49.814;8.650;2024-03-02T06:41:41;45.37;;;29.90;;
4422;SDS011;2224;49.814;8.650;2024-03-02T06:44:12;44.90;;;28.43;;
4422;SDS011;2224;49.814;8.650;2024-03-02T06:46:37;43.70;;;28.57;;
4422;SDS011;2224;49.814;8.650;2024-03-02T06:49:02;29.30;;;19.70;;
4422;SDS011;2224;49.814;8.650;2024-03-02T06:51:29;21.30;;;16.03;;
4422;SDS011;2224;49.814;8.650;2024-03-02T06:53:54;23.70;;;17.83;;
4422;SDS011;2224;49.814;8.650;2024-03-02T06:56:20;20.90;;;16.57;;
4422;SDS011;2224;49.814;8.650;2024-03-02T06:58:45;21.23;;;16.27;;
4422;SDS011;2224;49.814;8.650;2024-03-02T07:01:11;22.00;;;17.00;;
4422;SDS011;2224;49.814;8.650;2024-03-02T07:03:36;19.40;;;16.17;;
4422;SDS011;2224;49.814;8.650;2024-03-02T07:06:02;19.97;;;16.53;;
4422;SDS011;2224;49.814;8.650;2024-03-02T07:08:28;24.27;;;16.70;;
4422;SDS011;2224;49.814;8.650;2024-03-02T07:10:53;22.70;;;17.27;;
4422;SDS011;2224;49.814;8.650;2024-03-02T07:13:18;29.83;;;17.77;;
4422;SDS011;2224;49.814;8.650;2024-03-02T07:15:45;22.23;;;16.53;;
4422;SDS011;2224;49.814;8.650;2024-03-02T07:18:28;23.80;;;16.20;;
4422;SDS011;2224;49.814;8.650;2024-03-02T07:20:58;22.40;;;16.90;;
4422;SDS011;2224;49.814;8.650;2024-03-02T07:23:25;27.00;;;17.27;;
4422;SDS011;2224;49.814;8.650;2024-03-02T07:25:52;23.00;;;16.17;;
4422;SDS011;2224;49.814;8.650;2024-03-02T07:28:21;23.83;;;16.43;;
4422;SDS011;2224;49.814;8.650;2024-03-02T07:30:46;23.70;;;17.63;;
4422;SDS011;2224;49.814;8.650;2024-03-02T07:33:12;24.07;;;16.93;;
4422;SDS011;2224;49.814;8.650;2024-03-02T07:35:37;23.00;;;17.27;;
4422;SDS011;2224;49.814;8.650;2024-03-02T07:38:02;23.57;;;18.43;;
4422;SDS011;2224;49.814;8.650;2024-03-02T07:40:28;27.83;;;17.17;;
4422;SDS011;2224;49.814;8.650;2024-03-02T07:42:53;21.60;;;17.40;;
4422;SDS011;2224;49.814;8.650;2024-03-02T07:45:19;26.70;;;19.67;;
4422;SDS011;2224;49.814;8.650;2024-03-02T07:47:45;24.00;;;18.30;;
4422;SDS011;2224;49.814;8.650;2024-03-02T07:50:11;26.03;;;17.47;;
4422;SDS011;2224;49.814;8.650;2024-03-02T07:52:36;23.97;;;17.83;;
4422;SDS011;2224;49.814;8.650;2024-03-02T07:55:01;30.63;;;18.13;;
4422;SDS011;2224;49.814;8.650;2024-03-02T07:57:27;23.73;;;16.40;;
4422;SDS011;2224;49.814;8.650;2024-03-02T07:59:52;23.87;;;17.27;;
4422;SDS011;2224;49.814;8.650;2024-03-02T08:02:17;24.37;;;17.57;;
4422;SDS011;2224;49.814;8.650;2024-03-02T08:04:43;23.30;;;17.33;;
4422;SDS011;2224;49.814;8.650;2024-03-02T08:07:08;25.13;;;16.40;;
4422;SDS011;2224;49.814;8.650;2024-03-02T08:09:34;24.10;;;15.17;;
4422;SDS011;2224;49.814;8.650;2024-03-02T08:11:59;22.20;;;16.10;;
4422;SDS011;2224;49.814;8.650;2024-03-02T08:14:25;21.87;;;16.47;;
4422;SDS011;2224;49.814;8.650;2024-03-02T08:16:50;23.77;;;16.90;;
4422;SDS011;2224;49.814;8.650;2024-03-02T08:19:15;29.40;;;15.60;;
4422;SDS011;2224;49.814;8.650;2024-03-02T08:21:41;20.67;;;15.00;;
4422;SDS011;2224;49.814;8.650;2024-03-02T08:24:07;25.33;;;16.30;;
4422;SDS011;2224;49.814;8.650;2024-03-02T08:26:33;17.40;;;13.27;;
4422;SDS011;2224;49.814;8.650;2024-03-02T08:28:59;16.20;;;13.47;;
4422;SDS011;2224;49.814;8.650;2024-03-02T08:31:26;19.17;;;13.03;;
4422;SDS011;2224;49.814;8.650;2024-03-02T08:33:52;19.93;;;14.40;;
4422;SDS011;2224;49.814;8.650;2024-03-02T08:36:17;19.57;;;13.97;;
4422;SDS011;2224;49.814;8.650;2024-03-02T08:38:42;16.40;;;13.30;;
4422;SDS011;2224;49.814;8.650;2024-03-02T08:41:09;17.27;;;14.47;;
4422;SDS011;2224;49.814;8.650;2024-03-02T08:43:34;20.50;;;16.10;;
4422;SDS011;2224;49.814;8.650;2024-03-02T08:46:01;17.13;;;13.90;;
4422;SDS011;2224;49.814;8.650;2024-03-02T08:48:26;18.63;;;13.30;;
4422;SDS011;2224;49.814;8.650;2024-03-02T08:50:52;17.50;;;14.47;;
4422;SDS011;2224;49.814;8.650;2024-03-02T08:53:17;18.57;;;14.57;;
4422;SDS011;2224;49.814;8.650;2024-03-02T08:55:44;15.90;;;13.10;;
4422;SDS011;2224;49.814;8.650;2024-03-02T08:58:10;18.33;;;14.17;;
4422;SDS011;2224;49.814;8.650;2024-03-02T09:00:36;17.77;;;14.40;;
4422;SDS011;2224;49.814;8.650;2024-03-02T09:03:01;17.07;;;13.30;;
4422;SDS011;2224;49.814;8.650;2024-03-02T09:05:26;17.57;;;13.53;;
4422;SDS011;2224;49.814;8.650;2024-03-02T09:07:52;15.90;;;12.40;;
4422;SDS011;2224;49.814;8.650;2024-03-02T09:10:17;18.83;;;12.50;;
4422;SDS011;2224;49.814;8.650;2024-03-02T09:12:42;16.80;;;13.47;;
4422;SDS011;2224;49.814;8.650;2024-03-02T09:15:08;16.10;;;12.67;;
4422;SDS011;2224;49.814;8.650;2024-03-02T09:17:33;16.40;;;12.77;;
4422;SDS011;2224;49.814;8.650;2024-03-02T09:19:58;20.20;;;12.37;;
4422;SDS011;2224;49.814;8.650;2024-03-02T09:22:24;18.70;;;14.20;;
4422;SDS011;2224;49.814;8.650;2024-03-02T09:24:49;18.90;;;13.40;;
4422;SDS011;2224;49.814;8.650;2024-03-02T09:27:14;16.83;;;13.80;;
4422;SDS011;2224;49.814;8.650;2024-03-02T09:29:40;14.23;;;12.27;;
4422;SDS011;2224;49.814;8.650;2024-03-02T09:32:06;16.70;;;12.17;;
4422;SDS011;2224;49.814;8.650;2024-03-02T09:34:32;15.30;;;12.23;;
4422;SDS011;2224;49.814;8.650;2024-03-02T09:36:57;15.47;;;12.77;;
4422;SDS011;2224;49.814;8.650;2024-03-02T09:39:22;17.83;;;13.10;;
4422;SDS011;2224;49.814;8.650;2024-03-02T09:41:48;15.63;;;13.23;;
4422;SDS011;2224;49.814;8.650;2024-03-02T09:44:13;13.80;;;12.27;;
4422;SDS011;2224;49.814;8.650;2024-03-02T09:46:39;12.70;;;11.10;;
4422;SDS011;2224;49.814;8.650;2024-03-02T09:49:04;15.00;;;12.43;;
4422;SDS011;2224;49.814;8.650;2024-03-02T09:51:30;15.53;;;11.63;;
4422;SDS011;2224;49.814;8.650;2024-03-02T09:53:56;17.97;;;12.73;;
4422;SDS011;2224;49.814;8.650;2024-03-02T09:56:21;18.57;;;11.93;;
4422;SDS011;2224;49.814;8.650;2024-03-02T09:58:47;17.73;;;11.13;;
4422;SDS011;2224;49.814;8.650;2024-03-02T10:01:12;13.97;;;11.83;;
4422;SDS011;2224;49.814;8.650;2024-03-02T10:03:38;14.63;;;12.23;;
4422;SDS011;2224;49.814;8.650;2024-03-02T10:06:19;15.40;;;12.67;;
4422;SDS011;2224;49.814;8.650;2024-03-02T10:08:48;14.53;;;12.43;;
4422;SDS011;2224;49.814;8.650;2024-03-02T10:11:27;16.10;;;13.00;;
4422;SDS011;2224;49.814;8.650;2024-03-02T10:14:07;14.30;;;12.10;;
4422;SDS011;2224;49.814;8.650;2024-03-02T10:16:37;18.30;;;12.30;;
4422;SDS011;2224;49.814;8.650;2024-03-02T10:19:14;14.83;;;11.17;;
4422;SDS011;2224;49.814;8.650;2024-03-02T10:21:41;15.20;;;12.03;;
4422;SDS011;2224;49.814;8.650;2024-03-02T10:24:07;14.03;;;11.50;;
4422;SDS011;2224;49.814;8.650;2024-03-02T10:26:32;14.07;;;11.70;;
4422;SDS011;2224;49.814;8.650;2024-03-02T10:28:58;11.17;;;9.93;;
4422;SDS011;2224;49.814;8.650;2024-03-02T10:31:24;13.47;;;10.30;;
4422;SDS011;2224;49.814;8.650;2024-03-02T10:33:52;10.17;;;9.10;;
4422;SDS011;2224;49.814;8.650;2024-03-02T10:36:19;11.00;;;9.90;;
4422;SDS011;2224;49.814;8.650;2024-03-02T10:38:44;11.73;;;9.37;;
4422;SDS011;2224;49.814;8.650;2024-03-02T10:41:12;11.07;;;9.03;;
4422;SDS011;2224;49.814;8.650;2024-03-02T10:43:41;10.80;;;9.47;;
4422;SDS011;2224;49.814;8.650;2024-03-02T10:46:07;9.90;;;8.90;;
4422;SDS011;2224;49.814;8.650;2024-03-02T10:48:32;12.00;;;8.63;;
4422;SDS011;2224;49.814;8.650;2024-03-02T10:50:59;9.60;;;7.50;;
4422;SDS011;2224;49.814;8.650;2024-03-02T10:53:26;9.83;;;8.00;;
4422;SDS011;2224;49.814;8.650;2024-03-02T10:55:52;11.00;;;7.60;;
4422;SDS011;2224;49.814;8.650;2024-03-02T10:58:25;10.63;;;6.97;;
4422;SDS011;2224;49.814;8.650;2024-03-02T11:00:52;8.10;;;6.20;;
4422;SDS011;2224;49.814;8.650;2024-03-02T11:03:17;7.97;;;5.67;;
4422;SDS011;2224;49.814;8.650;2024-03-02T11:05:43;9.03;;;5.17;;
4422;SDS011;2224;49.814;8.650;2024-03-02T11:08:13;8.03;;;5.53;;
4422;SDS011;2224;49.814;8.650;2024-03-02T11:11:02;7.53;;;4.33;;
4422;SDS011;2224;49.814;8.650;2024-03-02T11:13:30;5.47;;;4.83;;
4422;SDS011;2224;49.814;8.650;2024-03-02T11:15:59;6.57;;;5.37;;
4422;SDS011;2224;49.814;8.650;2024-03-02T11:18:32;5.93;;;4.47;;
4422;SDS011;2224;49.814;8.650;2024-03-02T11:20:58;4.70;;;4.30;;
4422;SDS011;2224;49.814;8.650;2024-03-02T11:23:33;4.10;;;3.63;;
4422;SDS011;2224;49.814;8.650;2024-03-02T11:26:19;6.43;;;3.40;;
4422;SDS011;2224;49.814;8.650;2024-03-02T11:28:45;4.37;;;3.70;;
4422;SDS011;2224;49.814;8.650;2024-03-02T11:31:10;4.30;;;3.90;;
4422;SDS011;2224;49.814;8.650;2024-03-02T11:33:36;2.97;;;2.33;;
4422;SDS011;2224;49.814;8.650;2024-03-02T11:36:01;2.80;;;2.53;;
4422;SDS011;2224;49.814;8.650;2024-03-02T11:38:33;3.73;;;2.60;;
4422;SDS011;2224;49.814;8.650;2024-03-02T11:41:00;2.43;;;2.07;;
4422;SDS011;2224;49.814;8.650;2024-03-02T11:43:27;2.10;;;1.67;;
4422;SDS011;2224;49.814;8.650;2024-03-02T11:45:57;2.27;;;2.07;;
4422;SDS011;2224;49.814;8.650;2024-03-02T11:48:23;9.73;;;7.40;;
4422;SDS011;2224;49.814;8.650;2024-03-02T11:50:49;11.03;;;8.37;;
4422;SDS011;2224;49.814;8.650;2024-03-02T11:53:15;8.53;;;6.70;;
4422;SDS011;2224;49.814;8.650;2024-03-02T11:55:41;6.73;;;5.23;;
4422;SDS011;2224;49.814;8.650;2024-03-02T11:58:08;4.63;;;3.33;;
4422;SDS011;2224;49.814;8.650;2024-03-02T12:00:34;3.47;;;2.73;;
4422;SDS011;2224;49.814;8.650;2024-03-02T12:05:32;3.70;;;3.30;;
4422;SDS011;2224;49.814;8.650;2024-03-02T12:07:58;4.33;;;3.40;;
4422;SDS011;2224;49.814;8.650;2024-03-02T12:10:27;5.77;;;4.37;;
4422;SDS011;2224;49.814;8.650;2024-03-02T12:12:57;3.97;;;2.67;;
4422;SDS011;2224;49.814;8.650;2024-03-02T12:15:32;2.60;;;2.40;;
4422;SDS011;2224;49.814;8.650;2024-03-02T12:18:04;3.90;;;3.07;;
4422;SDS011;2224;49.814;8.650;2024-03-02T12:20:30;5.00;;;2.73;;
4422;SDS011;2224;49.814;8.650;2024-03-02T12:23:04;3.07;;;2.77;;
4422;SDS011;2224;49.814;8.650;2024-03-02T12:25:29;2.87;;;2.47;;
4422;SDS011;2224;49.814;8.650;2024-03-02T12:27:56;4.33;;;3.70;;
4422;SDS011;2224;49.814;8.650;2024-03-02T12:30:22;4.10;;;2.77;;
4422;SDS011;2224;49.814;8.650;2024-03-02T12:32:48;4.07;;;3.27;;
4422;SDS011;2224;49.814;8.650;2024-03-02T12:35:13;3.73;;;3.27;;
4422;SDS011;2224;49.814;8.650;2024-03-02T12:37:47;3.50;;;2.63;;
4422;SDS011;2224;49.814;8.650;2024-03-02T12:40:13;5.03;;;3.07;;
4422;SDS011;2224;49.814;8.650;2024-03-02T12:42:40;6.20;;;3.60;;
4422;SDS011;2224;49.814;8.650;2024-03-02T12:45:07;3.27;;;2.97;;
4422;SDS011;2224;49.814;8.650;2024-03-02T12:47:33;5.03;;;3.10;;
4422;SDS011;2224;49.814;8.650;2024-03-02T12:49:59;4.40;;;3.37;;
4422;SDS011;2224;49.814;8.650;2024-03-02T12:52:24;3.77;;;3.37;;
4422;SDS011;2224;49.814;8.650;2024-03-02T12:54:50;4.70;;;3.27;;
4422;SDS011;2224;49.814;8.650;2024-03-02T12:57:18;3.67;;;2.70;;
4422;SDS011;2224;49.814;8.650;2024-03-02T12:59:46;3.27;;;2.97;;
4422;SDS011;2224;49.814;8.650;2024-03-02T13:02:18;4.20;;;2.70;;
4422;SDS011;2224;49.814;8.650;2024-03-02T13:04:43;4.57;;;3.30;;
4422;SDS011;2224;49.814;8.650;2024-03-02T13:07:09;3.10;;;2.83;;
4422;SDS011;2224;49.814;8.650;2024-03-02T13:09:35;3.60;;;2.67;;
4422;SDS011;2224;49.814;8.650;2024-03-02T13:12:01;3.60;;;3.30;;
4422;SDS011;2224;49.814;8.650;2024-03-02T13:14:26;3.87;;;3.00;;
4422;SDS011;2224;49.814;8.650;2024-03-02T13:16:51;4.77;;;3.33;;
4422;SDS011;2224;49.814;8.650;2024-03-02T13:19:17;3.70;;;3.17;;
4422;SDS011;2224;49.814;8.650;2024-03-02T13:21:44;5.13;;;3.33;;
4422;SDS011;2224;49.814;8.650;2024-03-02T13:24:09;4.20;;;3.23;;
4422;SDS011;2224;49.814;8.650;2024-03-02T13:26:34;3.00;;;2.70;;
4422;SDS011;2224;49.814;8.650;2024-03-02T13:29:00;3.40;;;3.10;;
4422;SDS011;2224;49.814;8.650;2024-03-02T13:31:25;3.10;;;2.80;;
4422;SDS011;2224;49.814;8.650;2024-03-02T13:33:51;5.60;;;3.20;;
4422;SDS011;2224;49.814;8.650;2024-03-02T13:36:16;3.40;;;2.97;;
4422;SDS011;2224;49.814;8.650;2024-03-02T13:38:42;2.90;;;2.70;;
4422;SDS011;2224;49.814;8.650;2024-03-02T13:41:07;3.87;;;3.00;;
4422;SDS011;2224;49.814;8.650;2024-03-02T13:43:33;3.23;;;2.47;;
4422;SDS011;2224;49.814;8.650;2024-03-02T13:46:00;2.80;;;2.50;;
4422;SDS011;2224;49.814;8.650;2024-03-02T13:48:25;3.27;;;2.50;;
4422;SDS011;2224;49.814;8.650;2024-03-02T13:50:51;2.30;;;2.10;;
4422;SDS011;2224;49.814;8.650;2024-03-02T13:53:18;2.33;;;2.10;;
4422;SDS011;2224;49.814;8.650;2024-03-02T13:55:43;2.40;;;2.20;;
4422;SDS011;2224;49.814;8.650;2024-03-02T13:58:09;2.40;;;2.10;;
4422;SDS011;2224;49.814;8.650;2024-03-02T14:00:35;3.17;;;2.80;;
4422;SDS011;2224;49.814;8.650;2024-03-02T14:03:02;2.47;;;2.00;;
4422;SDS011;2224;49.814;8.650;2024-03-02T14:05:28;2.90;;;2.27;;
4422;SDS011;2224;49.814;8.650;2024-03-02T14:07:54;3.37;;;2.53;;
4422;SDS011;2224;49.814;8.650;2024-03-02T14:10:19;2.90;;;2.30;;
4422;SDS011;2224;49.814;8.650;2024-03-02T14:12:47;2.80;;;2.37;;
4422;SDS011;2224;49.814;8.650;2024-03-02T14:15:12;5.50;;;3.27;;
4422;SDS011;2224;49.814;8.650;2024-03-02T14:17:38;3.43;;;3.00;;
4422;SDS011;2224;49.814;8.650;2024-03-02T14:20:03;2.97;;;2.50;;
4422;SDS011;2224;49.814;8.650;2024-03-02T14:22:29;2.83;;;2.60;;
4422;SDS011;2224;49.814;8.650;2024-03-02T14:24:55;2.80;;;2.33;;
4422;SDS011;2224;49.814;8.650;2024-03-02T14:27:20;2.83;;;2.43;;
4422;SDS011;2224;49.814;8.650;2024-03-02T14:29:46;2.83;;;2.60;;
4422;SDS011;2224;49.814;8.650;2024-03-02T14:32:11;2.27;;;2.07;;
4422;SDS011;2224;49.814;8.650;2024-03-02T14:34:37;2.80;;;2.50;;
4422;SDS011;2224;49.814;8.650;2024-03-02T14:37:03;3.00;;;2.50;;
4422;SDS011;2224;49.814;8.650;2024-03-02T14:39:28;2.40;;;2.20;;
4422;SDS011;2224;49.814;8.650;2024-03-02T14:41:54;2.60;;;2.03;;
4422;SDS011;2224;49.814;8.650;2024-03-02T14:44:20;8.17;;;5.27;;
4422;SDS011;2224;49.814;8.650;2024-03-02T14:46:46;5.77;;;3.90;;
4422;SDS011;2224;49.814;8.650;2024-03-02T14:49:13;5.07;;;4.30;;
4422;SDS011;2224;49.814;8.650;2024-03-02T14:51:38;4.27;;;3.03;;
4422;SDS011;2224;49.814;8.650;2024-03-02T14:54:03;3.97;;;2.53;;
4422;SDS011;2224;49.814;8.650;2024-03-02T14:56:29;2.80;;;2.47;;
4422;SDS011;2224;49.814;8.650;2024-03-02T14:58:54;2.20;;;1.90;;
4422;SDS011;2224;49.814;8.650;2024-03-02T15:01:19;2.90;;;2.20;;
4422;SDS011;2224;49.814;8.650;2024-03-02T15:03:47;3.83;;;2.33;;